Terminal Aerodrome Forecast
Issued by NWS Atlanta, GA

Home | Current Version | Previous Version | Text Only | Print | Product List | Glossary On
Versions: 1 2 3 4 5 6 7 8 9 10 11 12 13 14 15 16 17 18 19 20 21 22 23 24 25 26 27 28 29 30 31 32 33 34 35 36 37 38
000
FTUS42 KFFC 152145 AAB
TAFATL
TAF AMD
KATL 152145Z 1522/1624 16005KT P6SM SCT120 BKN250
     FM160200 20003KT P6SM BKN100 BKN250
     FM160800 26004KT P6SM BKN025 BKN080
     FM161500 31007KT P6SM FEW030 SCT250
     FM161800 32010G15KT P6SM SCT250=

USA.gov is the U.S. government's official web portal to all federal, state and local government web resources and services.